Terminal Aerodrome Forecast
Issued by NWS Austin/San Antonio, TX

Home | Current Version | Previous Version | Text Only | Print | Product List | Glossary On
Versions: 1 2 3 4 5 6 7 8 9 10 11 12 13 14 15 16 17 18 19 20
000
FTUS44 KEWX 061120
TAFSAT
TAF
KSAT 061120Z 0612/0718 16010KT P6SM OVC015
      TEMPO 0612/0614 BKN008
     FM061700 16015G25KT P6SM BKN050
     FM070400 15014KT P6SM BKN015=

USA.gov is the U.S. government's official web portal to all federal, state and local government web resources and services.